createdAt,value
2023-05-20T00:00:41.273Z,13.37
2023-05-20T00:03:19.936Z,13.34
2023-05-20T00:05:46.363Z,13.34
2023-05-20T00:08:12.982Z,13.34
2023-05-20T00:10:39.422Z,13.32
2023-05-20T00:13:06.413Z,13.37
2023-05-20T00:15:33.740Z,13.41
2023-05-20T00:18:01.297Z,13.40
2023-05-20T00:20:27.886Z,13.48
2023-05-20T00:22:54.915Z,13.53
2023-05-20T00:25:21.297Z,13.47
2023-05-20T00:27:47.737Z,13.57
2023-05-20T00:30:14.223Z,13.48
2023-05-20T00:32:40.805Z,13.50
2023-05-20T00:35:07.539Z,13.47
2023-05-20T00:37:34.098Z,13.42
2023-05-20T00:40:00.275Z,13.49
2023-05-20T00:42:28.158Z,13.50
2023-05-20T00:44:55.224Z,13.49
2023-05-20T00:47:31.939Z,13.44
2023-05-20T00:49:59.320Z,13.39
2023-05-20T00:52:28.982Z,13.51
2023-05-20T00:54:55.828Z,13.47
2023-05-20T00:57:22.343Z,13.44
2023-05-20T00:59:48.645Z,13.49
2023-05-20T01:02:15.424Z,13.47
2023-05-20T01:04:46.444Z,13.45
2023-05-20T01:07:17.153Z,13.45
2023-05-20T01:09:43.978Z,13.39
2023-05-20T01:12:20.049Z,13.41
2023-05-20T01:14:49.502Z,13.36
2023-05-20T01:17:20.169Z,13.36
2023-05-20T01:19:47.932Z,13.37
2023-05-20T01:22:14.694Z,13.36
2023-05-20T01:24:44.110Z,13.29
2023-05-20T01:27:12.705Z,13.36
2023-05-20T01:29:42.162Z,13.32
2023-05-20T01:32:31.207Z,13.26
2023-05-20T01:34:59.153Z,13.30
2023-05-20T01:37:27.584Z,13.30
2023-05-20T01:39:54.991Z,13.30
2023-05-20T01:42:22.337Z,13.27
2023-05-20T01:44:48.606Z,13.25
2023-05-20T01:47:15.119Z,13.24
2023-05-20T01:49:41.315Z,13.33
2023-05-20T01:52:08.222Z,13.29
2023-05-20T01:54:35.626Z,13.35
2023-05-20T01:57:02.301Z,13.35
2023-05-20T01:59:28.491Z,13.37
2023-05-20T02:01:54.983Z,13.29
2023-05-20T02:04:21.949Z,13.33
2023-05-20T02:06:48.520Z,13.27
2023-05-20T02:09:14.655Z,13.25
2023-05-20T02:11:41.070Z,13.20
2023-05-20T02:14:07.193Z,13.20
2023-05-20T02:16:34.119Z,13.17
2023-05-20T02:19:01.354Z,13.24
2023-05-20T02:21:28.180Z,13.22
2023-05-20T02:23:54.345Z,13.24
2023-05-20T02:26:21.968Z,13.24
2023-05-20T02:28:49.883Z,13.28
2023-05-20T02:31:17.008Z,13.28
2023-05-20T02:33:43.726Z,13.36
2023-05-20T02:36:10.374Z,13.35
2023-05-20T02:38:36.536Z,13.43
2023-05-20T02:41:03.782Z,13.42
2023-05-20T02:43:31.516Z,13.43
2023-05-20T02:46:00.628Z,13.49
2023-05-20T02:48:26.846Z,13.53
2023-05-20T02:50:53.594Z,13.59
2023-05-20T02:53:20.280Z,13.56
2023-05-20T02:55:47.915Z,13.60
2023-05-20T02:58:14.082Z,13.61
2023-05-20T03:00:40.796Z,13.66
2023-05-20T03:03:07.577Z,13.61
2023-05-20T03:05:37.007Z,13.61
2023-05-20T03:08:11.135Z,13.66
2023-05-20T03:10:38.518Z,13.63
2023-05-20T03:13:10.720Z,13.66
2023-05-20T03:15:44.870Z,13.66
2023-05-20T03:18:14.195Z,13.64
2023-05-20T03:20:43.576Z,13.68
2023-05-20T03:23:11.120Z,13.52
2023-05-20T03:25:38.332Z,13.65
2023-05-20T03:28:05.909Z,13.66
2023-05-20T03:30:35.125Z,13.66
2023-05-20T03:33:02.448Z,13.66
2023-05-20T03:35:29.365Z,13.68
2023-05-20T03:37:55.583Z,13.61
2023-05-20T03:40:23.959Z,13.61
2023-05-20T03:42:51.309Z,13.55
2023-05-20T03:45:19.992Z,13.64
2023-05-20T03:48:12.488Z,13.70
2023-05-20T03:50:39.491Z,13.67
2023-05-20T03:53:05.895Z,13.66
2023-05-20T03:55:40.039Z,13.62
2023-05-20T03:58:07.362Z,13.69
2023-05-20T04:00:33.864Z,13.65
2023-05-20T04:03:00.569Z,13.66
2023-05-20T04:05:27.168Z,13.67
2023-05-20T04:07:56.721Z,13.58
2023-05-20T04:10:24.336Z,13.56
2023-05-20T04:12:51.759Z,13.54
2023-05-20T04:15:18.877Z,13.52
2023-05-20T04:17:53.617Z,13.51
2023-05-20T04:20:20.185Z,13.61
2023-05-20T04:22:47.789Z,13.67
2023-05-20T04:25:14.616Z,13.75
2023-05-20T04:27:41.145Z,13.72
2023-05-20T04:30:07.991Z,13.64
2023-05-20T04:32:38.589Z,13.73
2023-05-20T04:35:10.790Z,13.74
2023-05-20T04:37:41.477Z,13.61
2023-05-20T04:40:08.562Z,13.63
2023-05-20T04:42:34.956Z,13.74
2023-05-20T04:45:03.772Z,13.67
2023-05-20T04:47:31.018Z,13.64
2023-05-20T04:49:57.920Z,13.67
2023-05-20T04:52:24.249Z,13.70
2023-05-20T04:54:51.471Z,13.70
2023-05-20T04:57:20.553Z,13.60
2023-05-20T04:59:47.285Z,13.64
2023-05-20T05:02:14.030Z,13.68
2023-05-20T05:04:40.944Z,13.71
2023-05-20T05:07:07.111Z,13.71
2023-05-20T05:09:34.885Z,13.75
2023-05-20T05:12:02.183Z,13.71
2023-05-20T05:14:29.527Z,13.80
2023-05-20T05:16:55.934Z,13.79
2023-05-20T05:19:22.923Z,13.80
2023-05-20T05:21:49.839Z,13.85
2023-05-20T05:24:16.614Z,13.87
2023-05-20T05:26:43.297Z,13.91
2023-05-20T05:29:11.700Z,13.86
2023-05-20T05:31:38.361Z,13.94
2023-05-20T05:34:04.959Z,14.01
2023-05-20T05:36:33.464Z,13.96
2023-05-20T05:39:00.502Z,14.14
2023-05-20T05:41:26.942Z,14.15
2023-05-20T05:43:53.866Z,14.03
2023-05-20T05:46:20.466Z,13.98
2023-05-20T05:48:49.779Z,14.01
2023-05-20T05:51:17.425Z,14.13
2023-05-20T05:53:44.223Z,14.08
2023-05-20T05:56:10.883Z,14.06
2023-05-20T05:58:38.047Z,14.09
2023-05-20T06:01:06.235Z,14.08
2023-05-20T06:03:36.047Z,14.10
2023-05-20T06:06:02.618Z,14.19
2023-05-20T06:08:30.014Z,14.17
2023-05-20T06:10:56.223Z,14.21
2023-05-20T06:13:22.689Z,14.40
2023-05-20T06:15:50.255Z,14.45
2023-05-20T06:18:17.217Z,14.53
2023-05-20T06:20:43.738Z,14.57
2023-05-20T06:23:10.880Z,14.53
2023-05-20T06:25:58.267Z,14.68
2023-05-20T06:28:26.022Z,14.62
2023-05-20T06:30:54.408Z,14.74
2023-05-20T06:33:27.961Z,14.64
2023-05-20T06:36:01.021Z,14.69
2023-05-20T06:38:28.300Z,14.74
2023-05-20T06:40:55.015Z,14.76
2023-05-20T06:43:21.911Z,14.50
2023-05-20T06:46:08.613Z,14.54
2023-05-20T06:48:43.137Z,14.66
2023-05-20T06:51:10.843Z,14.78
2023-05-20T06:53:38.452Z,14.94
2023-05-20T06:56:05.302Z,15.03
2023-05-20T06:58:32.472Z,15.01
2023-05-20T07:00:58.914Z,15.10
2023-05-20T07:03:25.919Z,15.15
2023-05-20T07:05:52.265Z,15.16
2023-05-20T07:08:19.828Z,15.10
2023-05-20T07:10:46.239Z,15.09
2023-05-20T07:13:15.565Z,15.00
2023-05-20T07:15:41.779Z,14.93
2023-05-20T07:18:09.402Z,14.81
2023-05-20T07:20:36.030Z,14.94
2023-05-20T07:23:08.179Z,15.21
2023-05-20T07:25:41.825Z,15.34
2023-05-20T07:28:09.197Z,15.47
2023-05-20T07:30:35.830Z,15.59
2023-05-20T07:33:16.825Z,15.41
2023-05-20T07:35:44.051Z,15.70
2023-05-20T07:38:11.957Z,16.12
2023-05-20T07:40:40.736Z,16.01
2023-05-20T07:43:08.475Z,15.88
2023-05-20T07:45:38.478Z,15.93
2023-05-20T07:48:08.012Z,16.17
2023-05-20T07:50:34.504Z,16.26
2023-05-20T07:53:01.516Z,16.17
2023-05-20T07:55:30.663Z,15.92
2023-05-20T07:57:57.878Z,16.05
2023-05-20T08:00:24.630Z,16.22
2023-05-20T08:02:51.213Z,16.56
2023-05-20T08:05:24.339Z,16.91
2023-05-20T08:07:51.188Z,17.18
2023-05-20T08:10:18.675Z,17.04
2023-05-20T08:12:46.525Z,16.63
2023-05-20T08:15:13.220Z,16.72
2023-05-20T08:17:40.713Z,17.05
2023-05-20T08:20:12.062Z,16.95
2023-05-20T08:22:38.721Z,17.05
2023-05-20T08:25:08.401Z,17.15
2023-05-20T08:27:36.540Z,16.96
2023-05-20T08:30:06.263Z,16.96
2023-05-20T08:32:33.082Z,17.12
2023-05-20T08:35:01.085Z,16.89
2023-05-20T08:37:28.429Z,16.64
2023-05-20T08:39:55.295Z,16.71
2023-05-20T08:42:23.623Z,16.66
2023-05-20T08:44:51.916Z,16.67
2023-05-20T08:47:22.146Z,16.84
2023-05-20T08:49:48.949Z,17.09
2023-05-20T08:52:17.652Z,16.99
2023-05-20T08:54:45.768Z,17.10
2023-05-20T08:57:13.339Z,17.27
2023-05-20T08:59:43.621Z,17.49
2023-05-20T09:02:10.969Z,17.66
2023-05-20T09:04:37.856Z,17.51
2023-05-20T09:07:05.343Z,17.73
2023-05-20T09:09:33.483Z,17.44
2023-05-20T09:12:02.402Z,17.61
2023-05-20T09:14:32.215Z,17.28
2023-05-20T09:16:59.401Z,17.38
2023-05-20T09:19:25.683Z,17.57
2023-05-20T09:21:54.186Z,17.18
2023-05-20T09:24:25.091Z,17.43
2023-05-20T09:26:52.229Z,17.29
2023-05-20T09:29:20.876Z,17.06
2023-05-20T09:31:48.444Z,17.21
2023-05-20T09:34:15.971Z,17.22
2023-05-20T09:36:44.465Z,17.29
2023-05-20T09:39:15.482Z,17.37
2023-05-20T09:42:06.317Z,17.51
2023-05-20T09:44:34.470Z,17.64
2023-05-20T09:47:02.324Z,17.58
2023-05-20T09:49:30.396Z,17.64
2023-05-20T09:51:59.022Z,17.43
2023-05-20T09:54:26.259Z,17.57
2023-05-20T09:56:53.093Z,17.69
2023-05-20T09:59:21.473Z,17.50
2023-05-20T10:01:48.028Z,17.54
2023-05-20T10:04:16.672Z,17.87
2023-05-20T10:06:57.437Z,17.61
2023-05-20T10:09:54.459Z,17.95
2023-05-20T10:12:51.270Z,17.88
2023-05-20T10:15:26.652Z,17.84
2023-05-20T10:18:09.180Z,18.20
2023-05-20T10:20:48.813Z,18.36
2023-05-20T10:23:30.840Z,18.51
2023-05-20T10:25:58.056Z,18.63
2023-05-20T10:28:35.709Z,18.76
2023-05-20T10:31:02.973Z,18.85
2023-05-20T10:33:29.824Z,18.70
2023-05-20T10:35:59.877Z,18.44
2023-05-20T10:38:26.538Z,18.07
2023-05-20T10:40:52.871Z,18.01
2023-05-20T10:43:30.505Z,18.29
2023-05-20T10:45:58.677Z,18.43
2023-05-20T10:48:29.412Z,18.91
2023-05-20T10:50:57.426Z,19.03
2023-05-20T10:53:33.501Z,19.09
2023-05-20T10:56:00.667Z,19.03
2023-05-20T10:58:27.190Z,18.87
2023-05-20T11:00:55.364Z,19.15
2023-05-20T11:03:22.791Z,19.13
2023-05-20T11:05:50.578Z,19.34
2023-05-20T11:08:28.431Z,19.58
2023-05-20T11:10:57.021Z,19.65
2023-05-20T11:13:24.667Z,19.30
2023-05-20T11:15:50.870Z,19.55
2023-05-20T11:18:18.681Z,19.22
2023-05-20T11:20:48.730Z,19.49
2023-05-20T11:23:15.831Z,19.75
2023-05-20T11:25:42.234Z,20.44
2023-05-20T11:28:13.517Z,20.43
2023-05-20T11:30:41.849Z,20.31
2023-05-20T11:33:12.064Z,20.07
2023-05-20T11:35:53.398Z,20.12
2023-05-20T11:38:20.992Z,20.17
2023-05-20T11:40:51.974Z,19.80
2023-05-20T11:43:19.191Z,19.66
2023-05-20T11:45:47.511Z,19.86
2023-05-20T11:48:16.874Z,20.29
2023-05-20T11:50:44.410Z,20.38
2023-05-20T11:53:15.376Z,21.05
2023-05-20T11:55:56.677Z,21.15
2023-05-20T11:58:29.106Z,20.69
2023-05-20T12:01:02.250Z,20.72
2023-05-20T12:03:40.664Z,20.86
2023-05-20T12:06:07.115Z,21.05
2023-05-20T12:08:33.674Z,21.14
2023-05-20T12:10:59.886Z,21.36
2023-05-20T12:13:26.363Z,21.54
2023-05-20T12:15:52.774Z,21.67
2023-05-20T12:18:19.288Z,21.66
2023-05-20T12:20:45.440Z,21.30
2023-05-20T12:23:11.992Z,21.30
2023-05-20T12:25:38.144Z,21.31
2023-05-20T12:28:04.633Z,20.73
2023-05-20T12:30:30.859Z,20.93
2023-05-20T12:32:57.414Z,20.89
2023-05-20T12:35:40.836Z,20.59
2023-05-20T12:38:07.841Z,20.93
2023-05-20T12:40:35.225Z,21.27
2023-05-20T12:43:03.314Z,21.29
2023-05-20T12:45:29.660Z,21.60
2023-05-20T12:47:56.831Z,21.77
2023-05-20T12:50:24.135Z,21.66
2023-05-20T12:52:50.808Z,21.35
2023-05-20T12:55:17.085Z,20.77
2023-05-20T12:57:55.454Z,20.85
2023-05-20T13:00:21.712Z,21.38
2023-05-20T13:02:48.549Z,21.76
2023-05-20T13:05:18.472Z,21.53
2023-05-20T13:07:45.048Z,21.38
2023-05-20T13:10:11.812Z,21.30
2023-05-20T13:12:38.368Z,21.57
2023-05-20T13:15:05.218Z,21.31
2023-05-20T13:17:32.141Z,21.38
2023-05-20T13:19:58.656Z,21.52
2023-05-20T13:22:25.184Z,21.89
2023-05-20T13:24:51.349Z,21.56
2023-05-20T13:27:17.878Z,21.64
2023-05-20T13:29:44.181Z,21.96
2023-05-20T13:32:10.889Z,21.85
2023-05-20T13:34:38.041Z,21.89
2023-05-20T13:37:05.128Z,21.95
2023-05-20T13:39:31.416Z,21.92
2023-05-20T13:41:58.113Z,21.89
2023-05-20T13:44:24.376Z,21.99
2023-05-20T13:46:50.947Z,22.08
2023-05-20T13:49:17.371Z,22.12
2023-05-20T13:51:44.715Z,21.97
2023-05-20T13:54:10.988Z,21.49
2023-05-20T13:56:37.656Z,21.85
2023-05-20T13:59:03.834Z,21.87
2023-05-20T14:01:32.509Z,21.93
2023-05-20T14:03:58.952Z,21.99
2023-05-20T14:06:26.881Z,22.01
2023-05-20T14:08:56.686Z,21.57
2023-05-20T14:11:23.343Z,21.70
2023-05-20T14:13:49.497Z,21.91
2023-05-20T14:16:16.268Z,21.69
2023-05-20T14:18:42.703Z,21.77
2023-05-20T14:21:11.155Z,21.82
2023-05-20T14:23:37.275Z,21.89
2023-05-20T14:26:03.781Z,22.10
2023-05-20T14:28:29.979Z,22.17
2023-05-20T14:30:56.402Z,22.05
2023-05-20T14:33:22.568Z,21.71
2023-05-20T14:35:48.998Z,21.92
2023-05-20T14:38:16.033Z,22.03
2023-05-20T14:40:42.487Z,22.11
2023-05-20T14:43:08.825Z,21.99
2023-05-20T14:45:35.519Z,21.91
2023-05-20T14:48:02.215Z,21.78
2023-05-20T14:50:29.003Z,21.49
2023-05-20T14:52:55.195Z,21.51
2023-05-20T14:55:21.644Z,21.56
2023-05-20T14:57:47.950Z,21.62
2023-05-20T15:00:14.906Z,21.81
2023-05-20T15:02:41.255Z,21.63
2023-05-20T15:05:08.284Z,21.60
2023-05-20T15:07:34.414Z,21.66
2023-05-20T15:10:03.163Z,21.51
2023-05-20T15:12:29.304Z,21.33
2023-05-20T15:14:56.101Z,21.46
2023-05-20T15:17:22.256Z,21.43
2023-05-20T15:19:48.665Z,21.60
2023-05-20T15:22:14.939Z,21.65
2023-05-20T15:24:41.425Z,21.59
2023-05-20T15:27:07.642Z,21.43
2023-05-20T15:29:34.040Z,21.48
2023-05-20T15:32:00.384Z,21.52
2023-05-20T15:34:26.882Z,21.52
2023-05-20T15:36:53.172Z,21.47
2023-05-20T15:39:19.610Z,21.50
2023-05-20T15:41:47.310Z,21.42
2023-05-20T15:44:13.750Z,21.45
2023-05-20T15:46:40.186Z,21.42
2023-05-20T15:49:06.866Z,21.41
2023-05-20T15:51:32.994Z,21.58
2023-05-20T15:53:59.783Z,21.69
2023-05-20T15:56:26.451Z,21.69
2023-05-20T15:58:52.942Z,21.75
2023-05-20T16:01:21.386Z,21.76
2023-05-20T16:03:48.612Z,21.64
2023-05-20T16:06:15.115Z,21.58
2023-05-20T16:08:41.836Z,21.49
2023-05-20T16:11:08.831Z,21.49
2023-05-20T16:13:35.523Z,21.51
2023-05-20T16:16:02.112Z,21.60
2023-05-20T16:18:29.143Z,21.44
2023-05-20T16:20:56.711Z,21.43
2023-05-20T16:23:24.220Z,21.31
2023-05-20T16:25:51.079Z,21.26
2023-05-20T16:28:17.633Z,21.38
2023-05-20T16:30:43.913Z,21.32
2023-05-20T16:33:12.310Z,21.26
2023-05-20T16:35:38.612Z,21.33
2023-05-20T16:38:05.597Z,21.31
2023-05-20T16:40:32.123Z,21.21
2023-05-20T16:42:59.173Z,21.20
2023-05-20T16:45:25.585Z,21.21
2023-05-20T16:47:52.091Z,21.28
2023-05-20T16:50:18.302Z,21.29
2023-05-20T16:52:44.893Z,21.30
2023-05-20T16:55:12.851Z,21.31
2023-05-20T16:57:39.264Z,21.36
2023-05-20T17:00:08.954Z,21.40
2023-05-20T17:02:35.530Z,21.45
2023-05-20T17:05:01.881Z,21.41
2023-05-20T17:07:28.374Z,21.44
2023-05-20T17:09:54.671Z,21.32
2023-05-20T17:12:21.181Z,21.31
2023-05-20T17:14:47.290Z,21.22
2023-05-20T17:17:14.228Z,21.27
2023-05-20T17:19:40.517Z,21.28
2023-05-20T17:22:08.184Z,21.31
2023-05-20T17:24:35.042Z,21.31
2023-05-20T17:27:02.967Z,21.31
2023-05-20T17:29:29.475Z,21.31
2023-05-20T17:31:56.643Z,21.28
2023-05-20T17:34:22.743Z,21.23
2023-05-20T17:36:49.389Z,21.20
2023-05-20T17:39:16.188Z,21.24
2023-05-20T17:41:43.738Z,21.17
2023-05-20T17:44:10.139Z,21.15
2023-05-20T17:46:36.673Z,21.05
2023-05-20T17:49:02.971Z,21.12
2023-05-20T17:51:31.077Z,21.06
2023-05-20T17:53:57.302Z,20.98
2023-05-20T17:56:24.226Z,21.00
2023-05-20T17:58:51.114Z,21.04
2023-05-20T18:01:17.611Z,20.92
2023-05-20T18:03:43.966Z,20.97
2023-05-20T18:06:11.008Z,20.94
2023-05-20T18:08:37.239Z,20.88
2023-05-20T18:11:04.257Z,20.81
2023-05-20T18:13:30.852Z,20.67
2023-05-20T18:15:57.705Z,20.61
2023-05-20T18:18:24.128Z,20.57
2023-05-20T18:20:50.884Z,20.52
2023-05-20T18:23:17.409Z,20.40
2023-05-20T18:25:44.057Z,20.37
2023-05-20T18:28:12.362Z,20.33
2023-05-20T18:30:39.354Z,20.28
2023-05-20T18:33:05.899Z,20.23
2023-05-20T18:35:32.508Z,20.17
2023-05-20T18:37:58.880Z,20.08
2023-05-20T18:40:25.837Z,20.02
2023-05-20T18:42:52.159Z,19.95
2023-05-20T18:45:18.793Z,19.85
2023-05-20T18:47:45.368Z,19.82
2023-05-20T18:50:11.872Z,19.77
2023-05-20T18:52:38.346Z,19.64
2023-05-20T18:55:05.494Z,19.56
2023-05-20T18:57:31.883Z,19.48
2023-05-20T18:59:58.654Z,19.41
2023-05-20T19:02:25.253Z,19.37
2023-05-20T19:04:52.281Z,19.31
2023-05-20T19:07:18.893Z,19.36
2023-05-20T19:09:45.981Z,19.32
2023-05-20T19:12:12.510Z,19.28
2023-05-20T19:14:39.065Z,19.27
2023-05-20T19:17:05.725Z,19.24
2023-05-20T19:19:32.557Z,19.17
2023-05-20T19:21:59.081Z,19.12
2023-05-20T19:24:25.745Z,19.09
2023-05-20T19:26:52.062Z,19.04
2023-05-20T19:29:18.966Z,19.02
2023-05-20T19:31:46.245Z,18.98
2023-05-20T19:34:13.173Z,18.91
2023-05-20T19:36:42.195Z,18.83
2023-05-20T19:39:10.720Z,18.79
2023-05-20T19:41:40.355Z,18.72
2023-05-20T19:44:08.265Z,18.73
2023-05-20T19:46:35.905Z,18.69
2023-05-20T19:49:13.319Z,18.68
2023-05-20T19:51:40.385Z,18.63
2023-05-20T19:54:09.424Z,18.51
2023-05-20T19:56:35.921Z,18.42
2023-05-20T19:59:03.335Z,18.32
2023-05-20T20:01:31.086Z,18.30
2023-05-20T20:03:57.865Z,18.27
2023-05-20T20:06:24.251Z,18.22
2023-05-20T20:08:50.996Z,18.23
2023-05-20T20:11:17.488Z,18.19
2023-05-20T20:13:44.245Z,18.18
2023-05-20T20:16:11.012Z,18.15
2023-05-20T20:18:37.751Z,18.13
2023-05-20T20:21:04.944Z,18.08
2023-05-20T20:23:32.146Z,18.05
2023-05-20T20:25:58.582Z,18.03
2023-05-20T20:28:25.544Z,17.97
2023-05-20T20:30:51.879Z,17.88
2023-05-20T20:33:18.888Z,17.79
2023-05-20T20:35:46.100Z,17.81
2023-05-20T20:38:14.076Z,17.77
2023-05-20T20:40:44.127Z,17.75
2023-05-20T20:43:19.595Z,17.74
2023-05-20T20:45:47.284Z,17.71
2023-05-20T20:48:16.737Z,17.66
2023-05-20T20:50:47.047Z,17.64
2023-05-20T20:53:15.633Z,17.67
2023-05-20T20:55:42.564Z,17.64
2023-05-20T20:58:11.237Z,17.60
2023-05-20T21:00:39.558Z,17.56
2023-05-20T21:03:08.273Z,17.54
2023-05-20T21:05:38.389Z,17.50
2023-05-20T21:08:07.640Z,17.46
2023-05-20T21:10:35.500Z,17.45
2023-05-20T21:13:03.090Z,17.48
2023-05-20T21:15:29.308Z,17.44
2023-05-20T21:17:55.793Z,17.41
2023-05-20T21:20:22.163Z,17.40
2023-05-20T21:22:48.605Z,17.41
2023-05-20T21:25:14.860Z,17.36
2023-05-20T21:27:41.419Z,17.40
2023-05-20T21:30:11.331Z,17.32
2023-05-20T21:32:38.542Z,17.29
2023-05-20T21:35:06.036Z,17.29
2023-05-20T21:37:33.260Z,17.29
2023-05-20T21:39:59.623Z,17.22
2023-05-20T21:42:26.265Z,17.22
2023-05-20T21:44:52.616Z,17.22
2023-05-20T21:47:20.096Z,17.22
2023-05-20T21:49:47.449Z,17.22
2023-05-20T21:52:14.449Z,17.13
2023-05-20T21:54:41.284Z,17.11
2023-05-20T21:57:08.044Z,16.99
2023-05-20T21:59:34.379Z,16.90
2023-05-20T22:02:00.959Z,16.85
2023-05-20T22:04:27.945Z,16.79
2023-05-20T22:06:55.446Z,16.73
2023-05-20T22:09:21.861Z,16.74
2023-05-20T22:11:48.953Z,16.66
2023-05-20T22:14:15.417Z,16.65
2023-05-20T22:16:45.926Z,16.65
2023-05-20T22:19:14.347Z,16.64
2023-05-20T22:21:49.466Z,16.65
2023-05-20T22:24:17.796Z,16.58
2023-05-20T22:26:44.545Z,16.55
2023-05-20T22:29:11.313Z,16.55
2023-05-20T22:31:38.153Z,16.58
2023-05-20T22:34:04.718Z,16.61
2023-05-20T22:36:33.220Z,16.64
2023-05-20T22:39:03.875Z,16.70
2023-05-20T22:41:30.332Z,16.73
2023-05-20T22:43:56.425Z,16.75
2023-05-20T22:46:23.983Z,16.79
2023-05-20T22:48:53.827Z,16.86
2023-05-20T22:51:21.102Z,16.89
2023-05-20T22:53:48.062Z,16.94
2023-05-20T22:56:15.029Z,16.99
2023-05-20T22:58:41.154Z,16.98
2023-05-20T23:01:07.685Z,17.02
2023-05-20T23:03:34.220Z,17.08
2023-05-20T23:06:01.070Z,17.10
2023-05-20T23:08:27.432Z,17.13
2023-05-20T23:10:53.849Z,17.09
2023-05-20T23:13:20.229Z,17.09
2023-05-20T23:15:47.352Z,17.10
2023-05-20T23:18:14.517Z,17.10
2023-05-20T23:20:41.226Z,17.08
2023-05-20T23:23:11.304Z,17.10
2023-05-20T23:25:38.398Z,17.08
2023-05-20T23:28:05.210Z,17.06
2023-05-20T23:30:31.696Z,17.00
2023-05-20T23:32:57.927Z,16.95
2023-05-20T23:35:24.421Z,16.93
2023-05-20T23:37:51.611Z,16.93
2023-05-20T23:40:18.000Z,16.92
2023-05-20T23:42:44.157Z,16.96
2023-05-20T23:45:11.056Z,16.96
2023-05-20T23:47:37.277Z,16.95
2023-05-20T23:50:04.181Z,16.96
2023-05-20T23:52:30.410Z,16.94
2023-05-20T23:54:57.822Z,16.93
2023-05-20T23:57:23.997Z,16.94
2023-05-20T23:59:50.576Z,16.94
